Briefing drone pour Chambery (LFLB)

Rechercher une autre localisation

Conditions de vol :


Nous sommes le : Samedi 28 mai 2022
Il est 19:22 UTC (21:22 LT)

Lever de soleil : 03:27 UTC (05:27 LT)
Coucher de soleil : 19:40 UTC (21:40 LT)

Météo

L'essentiel des conditions de vol

VIGILANCE MÉTÉO FRANCE - Savoie (73)
Pas de vigilances particulieres
METAR de LFLB
LFLB 281900Z AUTO 34011KT CAVOK 21/07 Q1012 NOSIG

Date d'émission: 28/05/2022
Heure d'émission: 19:00 UTC
Vent: 340° pour 11 KT (20 km/h)
Visibilité horizontale: > 10 km
Plafond : Plafond et visibilité OK (CAVOK)
Température: 21 °C
Point de rosée: 7 °C
Humidité: 40%
Pression (QNH): 1012 hPa
Conditions: Pas de changement dans les 2 heures (NOSIG)
TAF de LFLB
LFLB 281400Z 2815/2915 35012KT CAVOK

Conditions prévues :

Heure d'émission : Bulletin éffectué le 28 à 15:00 UTC
Prévision : Valide du 28 a 15:00 UTC au 29 a 15:00 UTC
Vent : 350° pour 12 KT (22 km/h)
Visibilité : > 10 km
WEBCAM POUR CHAMBERY

Réglementation

Voler en sécurité

CARTES AERONAUTIQUE 1/500.000
CARTES VAC (LFLB)
SUP AIP




Chargement des AIP...
NOTAM (CHAMBERY + Terrain à proximité / FIR )




Chargement des NOTAMS...
CONTACT PREFECTURE 73


Avertissement : Les données mises à disposition sont indicatives. Oxygène Drone ne pourra être tenu responsable de dégâts causés aux biens et aux personnes.